createdAt,value
2022-11-03T00:01:37.864Z,9.20
2022-11-03T00:04:06.695Z,9.20
2022-11-03T00:06:35.499Z,9.20
2022-11-03T00:09:08.920Z,9.20
2022-11-03T00:11:38.123Z,9.20
2022-11-03T00:14:07.051Z,9.20
2022-11-03T00:16:35.353Z,9.20
2022-11-03T00:19:03.737Z,9.30
2022-11-03T00:21:34.763Z,9.30
2022-11-03T00:24:05.263Z,9.30
2022-11-03T00:26:35.964Z,9.30
2022-11-03T00:29:10.158Z,9.30
2022-11-03T00:31:39.605Z,9.40
2022-11-03T00:34:08.469Z,9.50
2022-11-03T00:36:37.578Z,9.50
2022-11-03T00:39:07.763Z,9.50
2022-11-03T00:41:36.010Z,9.40
2022-11-03T00:44:04.236Z,9.40
2022-11-03T00:46:35.471Z,9.50
2022-11-03T00:49:04.209Z,9.50
2022-11-03T00:51:34.587Z,9.40
2022-11-03T00:54:07.534Z,9.40
2022-11-03T00:56:37.895Z,9.40
2022-11-03T00:59:09.879Z,9.40
2022-11-03T01:01:45.247Z,9.40
2022-11-03T01:04:32.090Z,9.40
2022-11-03T01:07:00.985Z,9.40
2022-11-03T01:09:29.928Z,9.40
2022-11-03T01:12:00.479Z,9.40
2022-11-03T01:14:34.422Z,9.40
2022-11-03T01:17:05.524Z,9.40
2022-11-03T01:19:37.123Z,9.40
2022-11-03T01:22:07.937Z,9.40
2022-11-03T01:24:39.427Z,9.40
2022-11-03T01:27:09.421Z,9.40
2022-11-03T01:29:37.513Z,9.40
2022-11-03T01:32:05.961Z,9.40
2022-11-03T01:34:34.204Z,9.40
2022-11-03T01:37:02.412Z,9.40
2022-11-03T01:39:30.605Z,9.30
2022-11-03T01:41:59.120Z,9.30
2022-11-03T01:44:33.334Z,9.30
2022-11-03T01:47:04.224Z,9.30
2022-11-03T01:49:36.064Z,9.30
2022-11-03T01:52:08.538Z,9.20
2022-11-03T01:54:37.924Z,9.30
2022-11-03T01:57:07.395Z,9.20
2022-11-03T01:59:37.602Z,9.20
2022-11-03T02:02:06.065Z,9.20
2022-11-03T02:04:35.525Z,9.20
2022-11-03T02:07:10.305Z,9.20
2022-11-03T02:09:41.112Z,9.10
2022-11-03T02:12:10.100Z,9.20
2022-11-03T02:14:41.375Z,9.20
2022-11-03T02:17:10.717Z,9.20
2022-11-03T02:19:42.587Z,9.20
2022-11-03T02:22:21.013Z,9.20
2022-11-03T02:24:54.088Z,9.20
2022-11-03T02:27:24.190Z,9.20
2022-11-03T02:29:52.329Z,9.10
2022-11-03T02:32:22.573Z,9.20
2022-11-03T02:34:51.605Z,9.10
2022-11-03T02:37:22.173Z,9.20
2022-11-03T02:39:52.890Z,9.10
2022-11-03T02:42:25.916Z,9.10
2022-11-03T02:44:55.073Z,9.10
2022-11-03T02:47:27.142Z,9.10
2022-11-03T02:50:02.448Z,9.10
2022-11-03T02:52:38.436Z,9.10
2022-11-03T02:55:13.429Z,9.10
2022-11-03T02:57:46.276Z,9.10
2022-11-03T03:00:15.156Z,9.10
2022-11-03T03:02:48.295Z,9.10
2022-11-03T03:05:21.042Z,9.10
2022-11-03T03:07:51.797Z,9.00
2022-11-03T03:10:21.565Z,9.00
2022-11-03T03:12:52.321Z,9.00
2022-11-03T03:15:22.112Z,9.00
2022-11-03T03:17:51.746Z,9.00
2022-11-03T03:20:22.372Z,9.00
2022-11-03T03:22:53.044Z,9.00
2022-11-03T03:25:23.520Z,9.00
2022-11-03T03:27:56.736Z,9.00
2022-11-03T03:30:25.005Z,9.00
2022-11-03T03:32:53.706Z,9.00
2022-11-03T03:35:24.375Z,9.00
2022-11-03T03:37:53.609Z,8.90
2022-11-03T03:40:23.548Z,8.90
2022-11-03T03:42:53.323Z,8.90
2022-11-03T03:45:21.996Z,8.90
2022-11-03T03:47:56.373Z,8.90
2022-11-03T03:50:29.031Z,8.90
2022-11-03T03:52:58.523Z,8.90
2022-11-03T03:55:27.773Z,8.90
2022-11-03T03:57:59.521Z,8.90
2022-11-03T04:00:28.660Z,8.90
2022-11-03T04:02:57.828Z,8.90
2022-11-03T04:05:28.956Z,8.90
2022-11-03T04:07:59.325Z,8.90
2022-11-03T04:10:27.557Z,8.90
2022-11-03T04:13:14.477Z,8.80
2022-11-03T04:15:57.850Z,8.80
2022-11-03T04:18:43.715Z,8.80
2022-11-03T04:21:30.481Z,8.80
2022-11-03T04:24:00.381Z,8.80
2022-11-03T04:26:29.308Z,8.80
2022-11-03T04:28:58.686Z,8.80
2022-11-03T04:31:29.748Z,8.80
2022-11-03T04:33:58.017Z,8.80
2022-11-03T04:36:27.130Z,8.70
2022-11-03T04:38:55.197Z,8.70
2022-11-03T04:41:24.669Z,8.70
2022-11-03T04:43:52.913Z,8.70
2022-11-03T04:46:25.372Z,8.70
2022-11-03T04:48:55.840Z,8.70
2022-11-03T04:51:32.719Z,8.70
2022-11-03T04:54:04.071Z,8.60
2022-11-03T04:56:32.170Z,8.60
2022-11-03T04:59:01.994Z,8.70
2022-11-03T05:01:31.114Z,8.60
2022-11-03T05:04:00.926Z,8.60
2022-11-03T05:06:30.202Z,8.60
2022-11-03T05:08:59.928Z,8.60
2022-11-03T05:11:30.971Z,8.60
2022-11-03T05:14:00.616Z,8.60
2022-11-03T05:16:29.677Z,8.50
2022-11-03T05:18:59.616Z,8.60
2022-11-03T05:21:29.597Z,8.50
2022-11-03T05:23:59.574Z,8.50
2022-11-03T05:26:29.523Z,8.40
2022-11-03T05:29:00.813Z,8.40
2022-11-03T05:31:29.880Z,8.50
2022-11-03T05:33:58.829Z,8.50
2022-11-03T05:36:28.631Z,8.40
2022-11-03T05:39:00.665Z,8.50
2022-11-03T05:41:33.253Z,8.50
2022-11-03T05:44:03.697Z,8.40
2022-11-03T05:46:33.893Z,8.40
2022-11-03T05:49:03.764Z,8.40
2022-11-03T05:51:35.413Z,8.40
2022-11-03T05:54:06.508Z,8.40
2022-11-03T05:56:36.020Z,8.40
2022-11-03T05:59:05.854Z,8.30
2022-11-03T06:01:35.639Z,8.30
2022-11-03T06:04:14.013Z,8.40
2022-11-03T06:06:45.249Z,8.40
2022-11-03T06:09:17.866Z,8.30
2022-11-03T06:11:46.880Z,8.30
2022-11-03T06:14:19.902Z,8.30
2022-11-03T06:16:51.857Z,8.30
2022-11-03T06:19:24.688Z,8.30
2022-11-03T06:21:53.576Z,8.30
2022-11-03T06:24:24.397Z,8.30
2022-11-03T06:26:53.000Z,8.20
2022-11-03T06:29:23.052Z,8.20
2022-11-03T06:31:52.210Z,8.20
2022-11-03T06:34:27.508Z,8.20
2022-11-03T06:36:57.528Z,8.10
2022-11-03T06:39:27.060Z,8.10
2022-11-03T06:41:58.009Z,8.10
2022-11-03T06:44:26.832Z,8.00
2022-11-03T06:47:00.785Z,8.00
2022-11-03T06:49:30.071Z,8.00
2022-11-03T06:51:58.370Z,8.00
2022-11-03T06:54:27.857Z,8.10
2022-11-03T06:56:56.248Z,8.10
2022-11-03T06:59:25.588Z,8.10
2022-11-03T07:01:55.923Z,8.10
2022-11-03T07:04:24.956Z,8.10
2022-11-03T07:06:53.877Z,8.10
2022-11-03T07:09:26.197Z,8.20
2022-11-03T07:11:56.564Z,8.20
2022-11-03T07:14:26.421Z,8.10
2022-11-03T07:16:55.415Z,8.20
2022-11-03T07:19:24.854Z,8.20
2022-11-03T07:21:54.146Z,8.20
2022-11-03T07:24:26.260Z,8.20
2022-11-03T07:27:01.443Z,8.20
2022-11-03T07:29:30.730Z,8.30
2022-11-03T07:32:00.295Z,8.20
2022-11-03T07:34:29.984Z,8.40
2022-11-03T07:36:58.571Z,8.40
2022-11-03T07:39:29.616Z,8.40
2022-11-03T07:41:59.135Z,8.40
2022-11-03T07:44:27.328Z,8.40
2022-11-03T07:46:55.738Z,8.40
2022-11-03T07:49:27.905Z,8.50
2022-11-03T07:51:56.560Z,8.50
2022-11-03T07:54:26.324Z,8.50
2022-11-03T07:56:56.671Z,8.50
2022-11-03T07:59:28.584Z,8.50
2022-11-03T08:01:57.836Z,8.50
2022-11-03T08:04:27.079Z,8.50
2022-11-03T08:06:55.218Z,8.60
2022-11-03T08:09:23.618Z,8.60
2022-11-03T08:11:51.821Z,8.60
2022-11-03T08:14:20.171Z,8.50
2022-11-03T08:16:49.610Z,8.50
2022-11-03T08:19:17.951Z,8.50
2022-11-03T08:21:46.101Z,8.60
2022-11-03T08:24:14.350Z,8.60
2022-11-03T08:26:42.427Z,8.60
2022-11-03T08:29:10.600Z,8.50
2022-11-03T08:31:40.799Z,8.60
2022-11-03T08:34:10.410Z,8.50
2022-11-03T08:36:38.979Z,8.60
2022-11-03T08:39:07.096Z,8.60
2022-11-03T08:41:35.591Z,8.70
2022-11-03T08:44:03.745Z,8.70
2022-11-03T08:46:31.818Z,8.60
2022-11-03T08:49:00.319Z,8.60
2022-11-03T08:51:29.864Z,8.50
2022-11-03T08:53:58.097Z,8.60
2022-11-03T08:56:26.250Z,8.60
2022-11-03T08:58:54.314Z,8.60
2022-11-03T09:01:22.522Z,8.70
2022-11-03T09:03:50.886Z,8.70
2022-11-03T09:06:19.129Z,8.80
2022-11-03T09:11:39.376Z,8.70
2022-11-03T09:14:07.606Z,8.90
2022-11-03T09:16:35.757Z,8.70
2022-11-03T09:19:04.067Z,8.70
2022-11-03T09:21:32.159Z,8.70
2022-11-03T09:24:01.778Z,8.70
2022-11-03T09:26:32.025Z,8.70
2022-11-03T09:29:00.094Z,8.70
2022-11-03T09:31:30.192Z,8.70
2022-11-03T09:33:58.264Z,8.70
2022-11-03T09:36:26.616Z,8.70
2022-11-03T09:38:58.819Z,8.70
2022-11-03T09:41:45.816Z,8.70
2022-11-03T09:44:16.649Z,8.70
2022-11-03T09:46:44.913Z,8.70
2022-11-03T09:49:13.962Z,8.80
2022-11-03T09:51:44.928Z,8.80
2022-11-03T09:54:14.370Z,8.90
2022-11-03T09:56:44.322Z,8.90
2022-11-03T09:59:15.800Z,8.80
2022-11-03T10:01:46.833Z,8.80
2022-11-03T10:04:15.055Z,8.80
2022-11-03T10:06:45.594Z,8.80
2022-11-03T10:09:15.958Z,8.70
2022-11-03T10:11:55.405Z,8.80
2022-11-03T10:14:24.279Z,8.80
2022-11-03T10:16:53.929Z,8.90
2022-11-03T10:19:22.224Z,8.90
2022-11-03T10:21:50.398Z,8.90
2022-11-03T10:24:18.610Z,8.90
2022-11-03T10:26:49.239Z,9.00
2022-11-03T10:29:21.709Z,9.00
2022-11-03T10:31:51.736Z,9.00
2022-11-03T10:34:34.442Z,8.90
2022-11-03T10:37:17.888Z,9.00
2022-11-03T10:39:46.458Z,9.00
2022-11-03T10:42:19.682Z,9.00
2022-11-03T10:44:49.312Z,9.00
2022-11-03T10:47:28.091Z,9.00
2022-11-03T10:49:59.355Z,9.10
2022-11-03T10:52:29.352Z,9.10
2022-11-03T10:55:01.364Z,9.10
2022-11-03T10:57:30.981Z,9.10
2022-11-03T10:59:59.331Z,9.20
2022-11-03T11:02:31.396Z,9.20
2022-11-03T11:05:02.093Z,9.20
2022-11-03T11:07:34.165Z,9.20
2022-11-03T11:10:07.420Z,9.20
2022-11-03T11:12:37.016Z,9.30
2022-11-03T11:15:08.919Z,9.30
2022-11-03T11:17:44.881Z,9.30
2022-11-03T11:20:23.986Z,9.30
2022-11-03T11:22:54.698Z,9.30
2022-11-03T11:25:23.754Z,9.30
2022-11-03T11:28:09.753Z,9.20
2022-11-03T11:31:05.220Z,9.10
2022-11-03T11:33:35.593Z,9.20
2022-11-03T11:36:06.621Z,9.20
2022-11-03T11:39:07.924Z,9.20
2022-11-03T11:41:54.747Z,9.10
2022-11-03T11:44:37.982Z,9.10
2022-11-03T11:47:19.984Z,9.10
2022-11-03T11:49:49.800Z,9.10
2022-11-03T11:52:19.204Z,9.10
2022-11-03T11:54:47.669Z,9.10
2022-11-03T11:57:27.825Z,9.10
2022-11-03T11:59:56.652Z,9.10
2022-11-03T12:02:25.653Z,9.10
2022-11-03T12:05:01.549Z,9.20
2022-11-03T12:07:35.939Z,9.20
2022-11-03T12:10:09.821Z,9.20
2022-11-03T12:12:37.963Z,9.10
2022-11-03T12:15:06.659Z,9.20
2022-11-03T12:17:35.707Z,9.10
2022-11-03T12:20:18.767Z,9.20
2022-11-03T12:22:51.048Z,9.20
2022-11-03T12:25:37.243Z,9.20
2022-11-03T12:28:06.094Z,9.20
2022-11-03T12:30:39.586Z,9.20
2022-11-03T12:33:08.688Z,9.10
2022-11-03T12:35:37.272Z,9.20
2022-11-03T12:38:06.805Z,9.20
2022-11-03T12:40:35.705Z,9.20
2022-11-03T12:43:04.267Z,9.20
2022-11-03T12:45:32.552Z,9.30
2022-11-03T12:48:00.662Z,9.40
2022-11-03T12:50:28.792Z,9.50
2022-11-03T12:52:56.836Z,9.70
2022-11-03T12:57:59.549Z,9.80
2022-11-03T13:00:30.792Z,9.80
2022-11-03T13:02:59.195Z,9.80
2022-11-03T13:05:27.266Z,9.70
2022-11-03T13:07:55.424Z,9.70
2022-11-03T13:10:23.725Z,9.70
2022-11-03T13:12:53.201Z,9.50
2022-11-03T13:15:21.324Z,9.40
2022-11-03T13:18:12.404Z,9.50
2022-11-03T13:20:38.211Z,9.30
2022-11-03T13:23:06.802Z,9.30
2022-11-03T13:25:35.178Z,9.30
2022-11-03T13:28:11.833Z,9.20
2022-11-03T13:30:40.518Z,9.20
2022-11-03T13:33:09.313Z,9.10
2022-11-03T13:35:38.901Z,9.20
2022-11-03T13:38:07.033Z,9.10
2022-11-03T13:40:55.391Z,9.00
2022-11-03T13:43:25.029Z,9.00
2022-11-03T13:45:53.983Z,9.00
2022-11-03T13:51:13.299Z,8.90
2022-11-03T13:56:29.889Z,8.90
2022-11-03T14:01:48.356Z,8.90
2022-11-03T14:07:05.186Z,8.80
2022-11-03T14:09:33.535Z,8.80
2022-11-03T14:12:19.364Z,8.80
2022-11-03T14:14:49.078Z,8.70
2022-11-03T14:17:17.304Z,8.60
2022-11-03T14:19:50.409Z,8.60
2022-11-03T14:22:20.992Z,8.60
2022-11-03T14:24:49.194Z,8.60
2022-11-03T14:27:17.314Z,8.60
2022-11-03T14:29:45.969Z,8.60
2022-11-03T14:32:15.476Z,8.60
2022-11-03T14:34:44.068Z,8.60
2022-11-03T14:37:17.260Z,8.60
2022-11-03T14:39:45.522Z,8.60
2022-11-03T14:42:15.974Z,8.60
2022-11-03T14:44:45.506Z,8.50
2022-11-03T14:47:17.773Z,8.50
2022-11-03T14:49:46.485Z,8.50
2022-11-03T14:52:15.476Z,8.50
2022-11-03T14:54:46.991Z,8.50
2022-11-03T14:57:15.096Z,8.50
2022-11-03T14:59:43.201Z,8.50
2022-11-03T15:02:11.528Z,8.50
2022-11-03T15:04:42.421Z,8.50
2022-11-03T15:07:10.573Z,8.40
2022-11-03T15:09:38.668Z,8.40
2022-11-03T15:12:06.941Z,8.40
2022-11-03T15:14:35.013Z,8.50
2022-11-03T15:17:03.329Z,8.40
2022-11-03T15:19:31.415Z,8.40
2022-11-03T15:22:03.704Z,8.40
2022-11-03T15:27:20.438Z,8.40
2022-11-03T15:29:48.553Z,8.40
2022-11-03T15:32:16.767Z,8.30
2022-11-03T15:34:44.946Z,8.40
2022-11-03T15:37:15.695Z,8.40
2022-11-03T15:39:44.060Z,8.40
2022-11-03T15:42:12.226Z,8.40
2022-11-03T15:44:40.354Z,8.40
2022-11-03T15:47:08.502Z,8.30
2022-11-03T15:49:37.060Z,8.30
2022-11-03T15:52:05.494Z,8.30
2022-11-03T15:54:39.796Z,8.30
2022-11-03T15:57:10.744Z,8.20
2022-11-03T15:59:42.397Z,8.30
2022-11-03T16:02:35.624Z,8.30
2022-11-03T16:05:05.270Z,8.30
2022-11-03T16:07:34.465Z,8.30
2022-11-03T16:10:04.492Z,8.20
2022-11-03T16:12:32.541Z,8.20
2022-11-03T16:15:00.736Z,8.20
2022-11-03T16:17:32.491Z,8.20
2022-11-03T16:20:02.859Z,8.20
2022-11-03T16:22:30.997Z,8.20
2022-11-03T16:24:59.166Z,8.20
2022-11-03T16:27:28.794Z,8.20
2022-11-03T16:29:56.964Z,8.20
2022-11-03T16:32:25.301Z,8.20
2022-11-03T16:34:53.560Z,8.20
2022-11-03T16:37:21.674Z,8.20
2022-11-03T16:39:50.731Z,8.20
2022-11-03T16:42:18.895Z,8.20
2022-11-03T16:44:48.435Z,8.30
2022-11-03T16:47:16.558Z,8.20
2022-11-03T16:49:44.626Z,8.30
2022-11-03T16:52:12.926Z,8.30
2022-11-03T16:54:41.172Z,8.20
2022-11-03T16:57:10.373Z,8.30
2022-11-03T16:59:39.548Z,8.30
2022-11-03T17:02:15.054Z,8.30
2022-11-03T17:04:46.344Z,8.30
2022-11-03T17:07:17.121Z,8.30
2022-11-03T17:09:45.599Z,8.30
2022-11-03T17:12:13.713Z,8.20
2022-11-03T17:14:41.807Z,8.20
2022-11-03T17:17:11.376Z,8.20
2022-11-03T17:19:39.482Z,8.20
2022-11-03T17:22:07.834Z,8.30
2022-11-03T17:24:35.925Z,8.30
2022-11-03T17:27:05.478Z,8.30
2022-11-03T17:29:35.471Z,8.20
2022-11-03T17:32:05.555Z,8.20
2022-11-03T17:34:35.396Z,8.20
2022-11-03T17:37:03.513Z,8.20
2022-11-03T17:39:34.309Z,8.20
2022-11-03T17:42:08.076Z,8.20
2022-11-03T17:44:37.131Z,8.20
2022-11-03T17:47:05.245Z,8.20
2022-11-03T17:49:35.061Z,8.20
2022-11-03T17:52:06.344Z,8.20
2022-11-03T17:54:34.600Z,8.30
2022-11-03T17:57:03.285Z,8.20
2022-11-03T17:59:31.413Z,8.20
2022-11-03T18:02:04.734Z,8.20
2022-11-03T18:04:34.870Z,8.20
2022-11-03T18:07:03.066Z,8.20
2022-11-03T18:09:31.217Z,8.20
2022-11-03T18:12:16.517Z,8.10
2022-11-03T18:14:44.672Z,8.10
2022-11-03T18:17:18.102Z,8.10
2022-11-03T18:19:47.842Z,8.10
2022-11-03T18:22:16.013Z,8.00
2022-11-03T18:24:44.069Z,8.10
2022-11-03T18:27:13.681Z,8.00
2022-11-03T18:29:41.945Z,8.00
2022-11-03T18:32:15.229Z,8.10
2022-11-03T18:34:43.528Z,8.00
2022-11-03T18:37:15.890Z,8.10
2022-11-03T18:39:44.245Z,8.10
2022-11-03T18:42:14.216Z,8.20
2022-11-03T18:44:43.150Z,8.30
2022-11-03T18:47:13.259Z,8.30
2022-11-03T18:49:41.445Z,8.30
2022-11-03T18:52:14.217Z,8.20
2022-11-03T18:54:44.378Z,8.20
2022-11-03T18:57:12.716Z,8.20
2022-11-03T18:59:42.279Z,8.20
2022-11-03T19:02:16.358Z,8.10
2022-11-03T19:04:44.813Z,8.10
2022-11-03T19:07:15.428Z,8.10
2022-11-03T19:09:44.105Z,8.10
2022-11-03T19:12:13.979Z,8.10
2022-11-03T19:14:45.159Z,8.10
2022-11-03T19:17:22.894Z,8.10
2022-11-03T19:19:52.496Z,8.10
2022-11-03T19:22:22.974Z,8.20
2022-11-03T19:24:54.451Z,8.20
2022-11-03T19:27:23.885Z,8.20
2022-11-03T19:29:52.476Z,8.20
2022-11-03T19:32:23.829Z,8.20
2022-11-03T19:34:56.293Z,8.20
2022-11-03T19:37:34.028Z,8.20
2022-11-03T19:40:06.050Z,8.20
2022-11-03T19:42:37.163Z,8.20
2022-11-03T19:45:06.389Z,8.20
2022-11-03T19:47:35.715Z,8.20
2022-11-03T19:50:04.655Z,8.20
2022-11-03T19:52:35.385Z,8.20
2022-11-03T19:55:08.216Z,8.20
2022-11-03T19:57:36.329Z,8.20
2022-11-03T20:00:10.412Z,8.30
2022-11-03T20:02:39.696Z,8.30
2022-11-03T20:05:08.094Z,8.30
2022-11-03T20:07:37.568Z,8.30
2022-11-03T20:10:06.159Z,8.40
2022-11-03T20:12:34.246Z,8.40
2022-11-03T20:15:02.367Z,8.40
2022-11-03T20:17:30.531Z,8.40
2022-11-03T20:19:58.667Z,8.40
2022-11-03T20:22:29.950Z,8.40
2022-11-03T20:25:03.138Z,8.40
2022-11-03T20:27:33.639Z,8.40
2022-11-03T20:30:03.224Z,8.40
2022-11-03T20:32:31.548Z,8.40
2022-11-03T20:35:01.460Z,8.30
2022-11-03T20:37:29.562Z,8.30
2022-11-03T20:40:04.314Z,8.30
2022-11-03T20:42:32.415Z,8.30
2022-11-03T20:45:02.993Z,8.20
2022-11-03T20:47:33.367Z,8.20
2022-11-03T20:50:01.625Z,8.20
2022-11-03T20:52:29.830Z,8.20
2022-11-03T20:55:01.942Z,8.20
2022-11-03T20:57:31.886Z,8.10
2022-11-03T21:00:01.222Z,8.00
2022-11-03T21:02:29.484Z,8.00
2022-11-03T21:04:58.193Z,8.00
2022-11-03T21:07:27.546Z,8.00
2022-11-03T21:09:58.351Z,7.90
2022-11-03T21:12:27.970Z,8.00
2022-11-03T21:15:13.884Z,7.90
2022-11-03T21:18:02.565Z,7.90
2022-11-03T21:20:34.539Z,7.90
2022-11-03T21:23:02.777Z,7.80
2022-11-03T21:25:31.802Z,7.70
2022-11-03T21:28:04.145Z,7.70
2022-11-03T21:30:32.407Z,7.70
2022-11-03T21:33:03.328Z,7.60
2022-11-03T21:35:39.859Z,7.60
2022-11-03T21:38:08.306Z,7.60
2022-11-03T21:40:36.585Z,7.60
2022-11-03T21:43:23.756Z,7.60
2022-11-03T21:45:52.289Z,7.70
2022-11-03T21:48:39.530Z,7.80
2022-11-03T21:51:07.701Z,7.70
2022-11-03T21:53:36.348Z,7.70
2022-11-03T21:56:11.743Z,7.60
2022-11-03T21:58:45.023Z,7.70
2022-11-03T22:01:13.463Z,7.70
2022-11-03T22:03:42.858Z,7.60
2022-11-03T22:06:14.846Z,7.60
2022-11-03T22:08:45.124Z,7.60
2022-11-03T22:11:22.811Z,7.50
2022-11-03T22:13:53.986Z,7.60
2022-11-03T22:16:57.376Z,7.50
2022-11-03T22:19:42.739Z,7.50
2022-11-03T22:22:29.688Z,7.50
2022-11-03T22:25:15.760Z,7.50
2022-11-03T22:27:44.114Z,7.50
2022-11-03T22:30:35.560Z,7.60
2022-11-03T22:33:03.727Z,7.50
2022-11-03T22:35:49.083Z,7.50
2022-11-03T22:38:21.049Z,7.60
2022-11-03T22:41:07.018Z,7.50
2022-11-03T22:43:52.697Z,7.50
2022-11-03T22:46:22.494Z,7.60
2022-11-03T22:48:51.061Z,7.70
2022-11-03T22:51:21.690Z,7.70
2022-11-03T22:54:07.541Z,7.80
2022-11-03T22:56:39.080Z,7.90
2022-11-03T22:59:07.604Z,7.90
2022-11-03T23:01:37.682Z,8.00
2022-11-03T23:04:07.335Z,8.00
2022-11-03T23:06:36.797Z,8.00
2022-11-03T23:09:05.474Z,8.00
2022-11-03T23:11:33.963Z,7.90
2022-11-03T23:14:03.175Z,8.00
2022-11-03T23:16:32.421Z,8.00
2022-11-03T23:19:19.668Z,8.00
2022-11-03T23:21:48.909Z,8.00
2022-11-03T23:24:42.148Z,8.00
2022-11-03T23:27:13.767Z,8.00
2022-11-03T23:29:45.007Z,7.90
2022-11-03T23:32:15.677Z,7.80
2022-11-03T23:34:45.431Z,7.80
2022-11-03T23:37:20.911Z,7.80
2022-11-03T23:39:49.003Z,7.80
2022-11-03T23:42:17.361Z,7.90
2022-11-03T23:45:02.103Z,7.80
2022-11-03T23:47:50.499Z,7.70
2022-11-03T23:50:22.756Z,7.70
2022-11-03T23:52:51.144Z,7.80
2022-11-03T23:55:19.288Z,7.70
2022-11-03T23:58:04.902Z,7.60
